createdAt,value
2022-10-11T00:02:26.391Z,22.48
2022-10-11T00:04:56.813Z,21.73
2022-10-11T00:07:26.820Z,13.50
2022-10-11T00:09:59.484Z,23.20
2022-10-11T00:12:29.178Z,22.77
2022-10-11T00:14:58.743Z,18.85
2022-10-11T00:17:28.590Z,19.73
2022-10-11T00:19:58.241Z,16.25
2022-10-11T00:22:27.791Z,16.75
2022-10-11T00:25:00.128Z,15.85
2022-10-11T00:27:29.959Z,19.38
2022-10-11T00:30:00.079Z,21.52
2022-10-11T00:32:30.077Z,17.92
2022-10-11T00:35:04.660Z,16.90
2022-10-11T00:37:34.385Z,15.90
2022-10-11T00:40:07.370Z,16.50
2022-10-11T00:42:36.977Z,21.98
2022-10-11T00:45:36.631Z,18.67
2022-10-11T00:48:09.439Z,16.33
2022-10-11T00:50:39.663Z,16.75
2022-10-11T00:53:12.664Z,17.30
2022-10-11T00:55:48.435Z,17.27
2022-10-11T00:58:18.470Z,20.48
2022-10-11T01:00:48.132Z,20.52
2022-10-11T01:03:18.895Z,17.88
2022-10-11T01:05:48.879Z,19.50
2022-10-11T01:08:18.673Z,19.75
2022-10-11T01:10:51.368Z,15.68
2022-10-11T01:13:31.649Z,19.13
2022-10-11T01:16:06.336Z,15.95
2022-10-11T01:18:41.288Z,24.73
2022-10-11T01:21:23.936Z,28.23
2022-10-11T01:24:25.349Z,21.73
2022-10-11T01:27:25.553Z,21.30
2022-10-11T01:30:05.259Z,22.67
2022-10-11T01:32:41.864Z,21.15
2022-10-11T01:35:15.618Z,14.98
2022-10-11T01:37:47.649Z,23.67
2022-10-11T01:40:21.876Z,20.15
2022-10-11T01:45:21.875Z,22.50
2022-10-11T01:48:04.215Z,32.00
2022-10-11T01:50:38.827Z,28.20
2022-10-11T01:53:18.670Z,31.52
2022-10-11T01:55:53.765Z,25.17
2022-10-11T01:58:31.924Z,25.63
2022-10-11T02:01:07.635Z,27.90
2022-10-11T02:03:46.614Z,27.45
2022-10-11T02:06:20.436Z,21.95
2022-10-11T02:08:56.466Z,22.75
2022-10-11T02:11:28.506Z,27.17
2022-10-11T02:14:01.517Z,28.25
2022-10-11T02:16:34.509Z,21.13
2022-10-11T02:19:07.957Z,27.90
2022-10-11T02:21:39.513Z,38.90
2022-10-11T02:24:14.426Z,28.23
2022-10-11T02:26:45.511Z,28.50
2022-10-11T02:29:16.905Z,23.60
2022-10-11T02:31:47.012Z,29.67
2022-10-11T02:34:21.218Z,25.20
2022-10-11T02:39:27.681Z,26.08
2022-10-11T02:41:58.912Z,33.05
2022-10-11T02:44:32.371Z,26.15
2022-10-11T02:47:02.253Z,32.33
2022-10-11T02:49:35.350Z,33.47
2022-10-11T02:52:07.534Z,29.70
2022-10-11T02:54:37.291Z,30.27
2022-10-11T02:57:06.903Z,29.10
2022-10-11T02:59:36.544Z,31.23
2022-10-11T03:02:06.479Z,32.92
2022-10-11T03:04:38.928Z,33.55
2022-10-11T03:07:08.550Z,36.60
2022-10-11T03:09:38.189Z,34.45
2022-10-11T03:12:08.188Z,34.42
2022-10-11T03:14:37.755Z,39.42
2022-10-11T03:17:31.040Z,37.88
2022-10-11T03:20:00.183Z,39.45
2022-10-11T03:22:29.778Z,32.15
2022-10-11T03:25:03.607Z,35.25
2022-10-11T03:27:33.954Z,30.35
2022-10-11T03:30:03.714Z,34.17
2022-10-11T03:32:33.576Z,34.13
2022-10-11T03:35:06.187Z,35.63
2022-10-11T03:37:37.541Z,42.90
2022-10-11T03:40:08.876Z,28.15
2022-10-11T03:42:38.741Z,31.73
2022-10-11T03:45:11.511Z,29.77
2022-10-11T03:47:42.345Z,34.97
2022-10-11T03:50:14.839Z,33.25
2022-10-11T03:52:44.417Z,41.20
2022-10-11T03:55:13.997Z,44.03
2022-10-11T03:57:43.825Z,46.38
2022-10-11T04:00:14.228Z,54.25
2022-10-11T04:02:43.775Z,56.10
2022-10-11T04:05:16.075Z,44.05
2022-10-11T04:07:45.656Z,52.58
2022-10-11T04:10:15.341Z,58.70
2022-10-11T04:12:44.898Z,54.38
2022-10-11T04:15:15.257Z,43.15
2022-10-11T04:17:45.055Z,41.75
2022-10-11T04:20:18.531Z,38.08
2022-10-11T04:22:48.180Z,34.80
2022-10-11T04:25:18.097Z,33.63
2022-10-11T04:27:47.939Z,44.28
2022-10-11T04:30:18.089Z,43.90
2022-10-11T04:32:47.832Z,37.42
2022-10-11T04:35:20.408Z,41.28
2022-10-11T04:37:49.979Z,44.28
2022-10-11T04:40:19.787Z,37.60
2022-10-11T04:42:50.677Z,30.88
2022-10-11T04:45:20.291Z,22.60
2022-10-11T04:47:50.363Z,26.10
2022-10-11T04:50:23.405Z,30.25
2022-10-11T04:52:53.017Z,28.50
2022-10-11T04:55:24.092Z,36.03
2022-10-11T04:57:53.919Z,29.20
2022-10-11T05:00:23.810Z,37.38
2022-10-11T05:02:53.975Z,32.03
2022-10-11T05:05:26.445Z,24.67
2022-10-11T05:07:56.049Z,46.08
2022-10-11T05:10:25.674Z,34.97
2022-10-11T05:12:55.554Z,31.45
2022-10-11T05:15:25.650Z,37.42
2022-10-11T05:17:55.457Z,41.40
2022-10-11T05:20:27.923Z,38.58
2022-10-11T05:22:57.915Z,40.53
2022-10-11T05:25:27.539Z,52.17
2022-10-11T05:27:57.452Z,52.63
2022-10-11T05:30:29.283Z,29.90
2022-10-11T05:32:58.975Z,39.72
2022-10-11T05:35:31.423Z,45.47
2022-10-11T05:38:01.041Z,59.30
2022-10-11T05:40:30.927Z,68.75
2022-10-11T05:43:00.486Z,79.97
2022-10-11T05:45:30.075Z,74.10
2022-10-11T05:47:59.695Z,57.85
2022-10-11T05:50:31.890Z,70.10
2022-10-11T05:53:01.761Z,51.75
2022-10-11T05:55:31.693Z,73.15
2022-10-11T05:58:01.321Z,63.85
2022-10-11T06:00:31.324Z,66.55
2022-10-11T06:03:03.885Z,65.75
2022-10-11T06:05:37.523Z,63.95
2022-10-11T06:08:08.843Z,67.75
2022-10-11T06:10:38.895Z,55.03
2022-10-11T06:13:09.597Z,56.00
2022-10-11T06:15:41.797Z,69.30
2022-10-11T06:18:11.338Z,48.63
2022-10-11T06:20:44.119Z,53.63
2022-10-11T06:23:13.977Z,52.33
2022-10-11T06:25:46.236Z,46.78
2022-10-11T06:28:15.964Z,44.67
2022-10-11T06:30:45.654Z,53.22
2022-10-11T06:33:17.886Z,42.38
2022-10-11T06:35:50.222Z,46.88
2022-10-11T06:38:20.036Z,47.50
2022-10-11T06:40:49.722Z,43.83
2022-10-11T06:43:21.174Z,37.00
2022-10-11T06:45:51.112Z,30.30
2022-10-11T06:48:20.720Z,30.30
2022-10-11T06:50:59.859Z,29.92
2022-10-11T06:53:30.737Z,25.02
2022-10-11T06:56:07.924Z,18.27
2022-10-11T06:58:38.184Z,15.73
2022-10-11T07:01:11.029Z,14.07
2022-10-11T07:03:40.962Z,13.98
2022-10-11T07:06:15.825Z,12.02
2022-10-11T07:08:45.710Z,18.88
2022-10-11T07:11:17.417Z,14.70
2022-10-11T07:13:51.797Z,11.55
2022-10-11T07:16:22.209Z,13.68
2022-10-11T07:18:59.865Z,10.82
2022-10-11T07:21:33.832Z,13.23
2022-10-11T07:24:04.270Z,9.83
2022-10-11T07:26:38.610Z,10.40
2022-10-11T07:29:08.832Z,10.27
2022-10-11T07:31:39.817Z,9.95
2022-10-11T07:34:10.071Z,11.32
2022-10-11T07:36:42.322Z,7.78
2022-10-11T07:39:12.221Z,9.13
2022-10-11T07:41:45.878Z,9.50
2022-10-11T07:46:47.345Z,11.02
2022-10-11T07:49:17.197Z,14.20
2022-10-11T07:51:49.670Z,22.45
2022-10-11T07:54:22.164Z,17.50
2022-10-11T07:56:52.641Z,24.35
2022-10-11T07:59:22.593Z,23.35
2022-10-11T08:01:52.215Z,18.23
2022-10-11T08:04:22.243Z,25.13
2022-10-11T08:06:54.670Z,24.58
2022-10-11T08:09:24.253Z,26.35
2022-10-11T08:11:53.915Z,24.35
2022-10-11T08:14:23.699Z,24.73
2022-10-11T08:16:53.459Z,23.92
2022-10-11T08:19:23.101Z,25.20
2022-10-11T08:21:55.495Z,27.33
2022-10-11T08:24:26.614Z,24.20
2022-10-11T08:26:56.194Z,19.35
2022-10-11T08:29:25.768Z,26.33
2022-10-11T08:31:55.481Z,28.30
2022-10-11T08:34:25.101Z,25.77
2022-10-11T08:36:57.397Z,23.95
2022-10-11T08:39:27.187Z,29.40
2022-10-11T08:41:58.785Z,22.13
2022-10-11T08:45:05.409Z,24.48
2022-10-11T08:47:31.113Z,22.23
2022-10-11T08:50:02.204Z,24.52
2022-10-11T08:55:21.871Z,26.13
2022-10-11T08:57:55.284Z,29.38
2022-10-11T09:00:26.803Z,28.55
2022-10-11T09:03:08.539Z,24.95
2022-10-11T09:05:45.072Z,26.45
2022-10-11T09:08:24.174Z,24.90
2022-10-11T09:11:00.828Z,26.63
2022-10-11T09:13:47.969Z,38.28
2022-10-11T09:16:25.274Z,29.13
2022-10-11T09:19:14.258Z,29.90
2022-10-11T09:21:46.493Z,24.88
2022-10-11T09:24:28.050Z,27.08
2022-10-11T09:26:59.622Z,27.08
2022-10-11T09:29:43.467Z,33.20
2022-10-11T09:32:17.552Z,30.38
2022-10-11T09:37:23.752Z,30.98
2022-10-11T09:39:58.916Z,34.88
2022-10-11T09:42:28.473Z,32.78
2022-10-11T09:45:00.090Z,35.90
2022-10-11T09:47:31.700Z,34.40
2022-10-11T09:50:03.761Z,32.45
2022-10-11T09:52:34.300Z,26.40
2022-10-11T09:55:06.912Z,26.35
2022-10-11T09:57:39.796Z,30.13
2022-10-11T10:00:22.121Z,29.02
2022-10-11T10:02:53.357Z,32.05
2022-10-11T10:05:31.477Z,34.78
2022-10-11T10:08:23.844Z,29.98
2022-10-11T10:11:04.684Z,29.95
2022-10-11T10:13:43.843Z,32.35
2022-10-11T10:16:24.495Z,32.00
2022-10-11T10:18:56.568Z,37.08
2022-10-11T10:21:29.896Z,34.65
2022-10-11T10:24:03.137Z,34.65
2022-10-11T10:26:36.352Z,33.20
2022-10-11T10:29:20.252Z,34.28
2022-10-11T10:34:57.006Z,30.25
2022-10-11T10:37:30.250Z,33.47
2022-10-11T10:40:03.503Z,35.83
2022-10-11T10:42:36.037Z,37.65
2022-10-11T10:45:09.773Z,34.97
2022-10-11T10:48:03.431Z,36.70
2022-10-11T10:50:35.708Z,34.22
2022-10-11T10:53:16.790Z,35.50
2022-10-11T10:55:49.806Z,31.42
2022-10-11T10:58:50.087Z,31.30
2022-10-11T11:01:23.855Z,32.00
2022-10-11T11:03:59.269Z,33.67
2022-10-11T11:06:36.570Z,33.92
2022-10-11T11:09:20.580Z,35.13
2022-10-11T11:11:59.570Z,33.50
2022-10-11T11:14:41.371Z,33.97
2022-10-11T11:17:19.805Z,27.67
2022-10-11T11:20:00.355Z,32.40
2022-10-11T11:22:39.823Z,33.90
2022-10-11T11:25:20.419Z,34.70
2022-10-11T11:27:59.536Z,37.42
2022-10-11T11:30:36.763Z,32.58
2022-10-11T11:33:14.890Z,32.67
2022-10-11T11:35:46.957Z,32.10
2022-10-11T11:38:19.800Z,32.35
2022-10-11T11:40:52.571Z,31.60
2022-10-11T11:43:24.931Z,33.45
2022-10-11T11:46:00.618Z,29.90
2022-10-11T11:48:30.184Z,25.15
2022-10-11T11:51:04.898Z,26.88
2022-10-11T11:53:47.180Z,28.60
2022-10-11T11:56:27.256Z,27.45
2022-10-11T11:59:05.755Z,27.73
2022-10-11T12:01:43.044Z,30.20
2022-10-11T12:04:23.331Z,25.35
2022-10-11T12:07:17.293Z,27.92
2022-10-11T12:09:51.237Z,34.03
2022-10-11T12:12:33.879Z,22.52
2022-10-11T12:15:18.973Z,24.70
2022-10-11T12:18:07.745Z,23.95
2022-10-11T12:20:41.317Z,27.63
2022-10-11T12:23:52.595Z,21.80
2022-10-11T12:26:41.120Z,23.40
2022-10-11T12:29:29.351Z,25.25
2022-10-11T12:32:28.880Z,20.75
2022-10-11T12:35:42.539Z,25.55
2022-10-11T12:38:23.917Z,18.20
2022-10-11T12:40:56.287Z,17.63
2022-10-11T12:43:55.577Z,20.50
2022-10-11T12:46:58.095Z,22.00
2022-10-11T12:49:40.539Z,21.08
2022-10-11T12:52:27.171Z,18.80
2022-10-11T12:55:17.313Z,17.27
2022-10-11T12:58:14.863Z,21.05
2022-10-11T13:00:46.818Z,18.77
2022-10-11T13:03:32.752Z,20.27
2022-10-11T13:06:03.111Z,18.38
2022-10-11T13:08:36.384Z,17.60
2022-10-11T13:11:12.145Z,20.92
2022-10-11T13:13:44.653Z,18.70
2022-10-11T13:16:17.967Z,16.65
2022-10-11T13:18:49.387Z,16.27
2022-10-11T13:21:23.195Z,20.75
2022-10-11T13:23:57.872Z,16.02
2022-10-11T13:26:31.451Z,20.42
2022-10-11T13:29:02.842Z,13.18
2022-10-11T13:31:33.082Z,13.50
2022-10-11T13:34:02.653Z,12.57
2022-10-11T13:36:32.387Z,14.00
2022-10-11T13:39:03.685Z,15.35
2022-10-11T13:41:36.718Z,12.18
2022-10-11T13:44:07.372Z,12.60
2022-10-11T13:46:41.677Z,14.30
2022-10-11T13:49:31.513Z,16.60
2022-10-11T13:52:02.584Z,14.60
2022-10-11T13:54:57.472Z,13.73
2022-10-11T13:57:37.570Z,15.95
2022-10-11T14:00:29.448Z,16.15
2022-10-11T14:03:02.088Z,12.65
2022-10-11T14:05:34.475Z,18.27
2022-10-11T14:08:06.738Z,21.40
2022-10-11T14:10:36.621Z,10.90
2022-10-11T14:13:23.098Z,17.20
2022-10-11T14:16:02.949Z,13.73
2022-10-11T14:18:41.481Z,19.13
2022-10-11T14:21:34.648Z,10.93
2022-10-11T14:24:07.645Z,13.35
2022-10-11T14:26:39.346Z,19.55
2022-10-11T14:29:15.962Z,19.77
2022-10-11T14:31:45.583Z,12.27
2022-10-11T14:34:21.077Z,13.90
2022-10-11T14:36:51.392Z,13.40
2022-10-11T14:39:23.634Z,17.42
2022-10-11T14:41:53.833Z,14.25
2022-10-11T14:44:26.556Z,10.50
2022-10-11T14:46:56.508Z,16.92
2022-10-11T14:49:30.146Z,21.88
2022-10-11T14:52:00.880Z,11.73
2022-10-11T14:54:32.480Z,12.57
2022-10-11T14:57:05.109Z,12.65
2022-10-11T14:59:39.237Z,15.30
2022-10-11T15:02:11.316Z,10.68
2022-10-11T15:04:41.008Z,15.68
2022-10-11T15:07:10.717Z,12.98
2022-10-11T15:09:40.337Z,12.40
2022-10-11T15:12:10.007Z,11.40
2022-10-11T15:14:42.174Z,10.27
2022-10-11T15:17:13.650Z,12.40
2022-10-11T15:19:43.551Z,11.65
2022-10-11T15:22:13.115Z,11.88
2022-10-11T15:24:42.711Z,13.43
2022-10-11T15:27:12.281Z,13.93
2022-10-11T15:29:44.439Z,12.52
2022-10-11T15:32:14.030Z,10.85
2022-10-11T15:34:43.606Z,10.77
2022-10-11T15:37:13.247Z,13.55
2022-10-11T15:39:42.987Z,14.35
2022-10-11T15:42:12.645Z,18.98
2022-10-11T15:44:44.876Z,21.10
2022-10-11T15:47:14.672Z,15.07
2022-10-11T15:49:44.214Z,12.27
2022-10-11T15:52:13.785Z,14.63
2022-10-11T15:54:43.331Z,13.35
2022-10-11T15:57:12.980Z,11.52
2022-10-11T15:59:45.384Z,13.85
2022-10-11T16:02:16.744Z,9.95
2022-10-11T16:04:46.680Z,11.85
2022-10-11T16:07:16.539Z,9.85
2022-10-11T16:09:46.127Z,12.15
2022-10-11T16:12:15.687Z,15.73
2022-10-11T16:14:48.045Z,16.48
2022-10-11T16:17:17.560Z,11.10
2022-10-11T16:19:47.114Z,9.93
2022-10-11T16:22:16.738Z,11.55
2022-10-11T16:24:46.466Z,13.95
2022-10-11T16:27:18.880Z,17.60
2022-10-11T16:29:51.307Z,20.70
2022-10-11T16:32:21.090Z,14.38
2022-10-11T16:34:50.858Z,15.32
2022-10-11T16:37:20.496Z,13.98
2022-10-11T16:39:50.073Z,26.27
2022-10-11T16:42:19.668Z,17.08
2022-10-11T16:44:51.845Z,15.20
2022-10-11T16:47:21.919Z,17.17
2022-10-11T16:49:51.920Z,20.65
2022-10-11T16:52:21.639Z,23.80
2022-10-11T16:54:52.604Z,28.60
2022-10-11T16:57:22.584Z,25.27
2022-10-11T16:59:54.802Z,21.33
2022-10-11T17:02:32.086Z,14.70
2022-10-11T17:05:02.376Z,19.20
2022-10-11T17:07:32.143Z,11.80
2022-10-11T17:10:01.744Z,16.10
2022-10-11T17:12:32.004Z,18.13
2022-10-11T17:15:04.168Z,9.52
2022-10-11T17:17:33.759Z,13.80
2022-10-11T17:20:04.301Z,14.55
2022-10-11T17:22:33.847Z,14.20
2022-10-11T17:25:03.727Z,22.50
2022-10-11T17:27:33.262Z,14.85
2022-10-11T17:30:05.439Z,16.60
2022-10-11T17:32:35.033Z,16.52
2022-10-11T17:35:05.023Z,12.48
2022-10-11T17:37:34.639Z,17.02
2022-10-11T17:40:04.243Z,14.60
2022-10-11T17:42:34.018Z,16.15
2022-10-11T17:45:06.543Z,18.38
2022-10-11T17:47:36.312Z,15.30
2022-10-11T17:50:06.049Z,15.98
2022-10-11T17:52:35.682Z,20.55
2022-10-11T17:55:05.253Z,20.05
2022-10-11T17:57:34.982Z,19.73
2022-10-11T18:00:08.786Z,18.25
2022-10-11T18:02:40.164Z,15.40
2022-10-11T18:05:14.276Z,15.85
2022-10-11T18:10:13.788Z,16.65
2022-10-11T18:12:43.658Z,16.15
2022-10-11T18:15:16.026Z,15.55
2022-10-11T18:17:47.332Z,27.77
2022-10-11T18:20:17.116Z,23.02
2022-10-11T18:22:46.913Z,22.50
2022-10-11T18:25:16.802Z,15.52
2022-10-11T18:27:46.434Z,18.58
2022-10-11T18:30:18.702Z,13.85
2022-10-11T18:32:48.277Z,12.43
2022-10-11T18:35:17.974Z,13.45
2022-10-11T18:37:47.647Z,17.83
2022-10-11T18:40:17.201Z,18.02
2022-10-11T18:42:46.746Z,16.20
2022-10-11T18:45:19.117Z,15.15
2022-10-11T18:47:48.943Z,14.98
2022-10-11T18:50:18.597Z,18.38
2022-10-11T18:52:48.640Z,14.77
2022-10-11T18:55:18.909Z,19.45
2022-10-11T18:57:48.464Z,14.13
2022-10-11T19:00:40.214Z,21.40
2022-10-11T19:03:10.874Z,20.23
2022-10-11T19:05:42.053Z,15.07
2022-10-11T19:08:11.675Z,14.52
2022-10-11T19:10:41.905Z,14.43
2022-10-11T19:13:11.513Z,14.32
2022-10-11T19:15:44.063Z,12.15
2022-10-11T19:18:18.277Z,13.93
2022-10-11T19:20:52.243Z,14.00
2022-10-11T19:23:23.703Z,16.50
2022-10-11T19:25:53.487Z,11.35
2022-10-11T19:28:23.875Z,16.45
2022-10-11T19:31:04.808Z,14.15
2022-10-11T19:33:37.005Z,17.85
2022-10-11T19:36:11.045Z,10.63
2022-10-11T19:38:41.971Z,14.23
2022-10-11T19:41:11.786Z,16.02
2022-10-11T19:43:44.828Z,12.95
2022-10-11T19:46:38.001Z,13.95
2022-10-11T19:49:11.987Z,14.77
2022-10-11T19:51:41.615Z,11.90
2022-10-11T19:54:14.185Z,13.68
2022-10-11T19:56:45.199Z,14.55
2022-10-11T19:59:15.521Z,15.07
2022-10-11T20:01:52.242Z,7.72
2022-10-11T20:04:50.958Z,14.88
2022-10-11T20:07:15.200Z,15.27
2022-10-11T20:09:44.781Z,12.43
2022-10-11T20:12:14.958Z,12.85
2022-10-11T20:14:44.528Z,12.00
2022-10-11T20:17:16.690Z,12.32
2022-10-11T20:19:46.472Z,12.88
2022-10-11T20:22:16.536Z,10.20
2022-10-11T20:24:46.440Z,11.27
2022-10-11T20:27:16.037Z,18.77
2022-10-11T20:29:46.120Z,14.05
2022-10-11T20:32:18.804Z,16.02
2022-10-11T20:34:48.384Z,11.23
2022-10-11T20:37:18.004Z,14.98
2022-10-11T20:39:47.555Z,11.88
2022-10-11T20:42:17.149Z,12.07
2022-10-11T20:44:48.191Z,15.02
2022-10-11T20:47:20.438Z,14.30
2022-10-11T20:49:50.242Z,17.88
2022-10-11T20:52:19.779Z,19.58
2022-10-11T20:54:49.397Z,27.60
2022-10-11T20:57:18.960Z,18.58
2022-10-11T20:59:48.538Z,17.02
2022-10-11T21:02:20.852Z,14.90
2022-10-11T21:04:51.404Z,16.90
2022-10-11T21:07:21.118Z,16.73
2022-10-11T21:09:50.701Z,13.80
2022-10-11T21:12:20.326Z,12.23
2022-10-11T21:14:50.108Z,10.63
2022-10-11T21:17:22.340Z,17.80
2022-10-11T21:19:52.120Z,12.52
2022-10-11T21:22:21.740Z,15.30
2022-10-11T21:24:51.252Z,14.65
2022-10-11T21:27:20.839Z,9.45
2022-10-11T21:29:50.388Z,10.15
2022-10-11T21:32:22.813Z,15.07
2022-10-11T21:34:52.628Z,15.85
2022-10-11T21:37:22.246Z,10.07
2022-10-11T21:39:51.786Z,10.70
2022-10-11T21:42:23.787Z,19.85
2022-10-11T21:44:55.476Z,11.90
2022-10-11T21:47:27.676Z,11.02
2022-10-11T21:49:57.276Z,10.35
2022-10-11T21:52:27.332Z,10.13
2022-10-11T21:54:56.875Z,10.02
2022-10-11T21:57:26.520Z,13.00
2022-10-11T21:59:56.064Z,14.43
2022-10-11T22:02:28.456Z,11.50
2022-10-11T22:04:58.027Z,13.40
2022-10-11T22:07:27.667Z,9.10
2022-10-11T22:09:57.282Z,13.55
2022-10-11T22:12:26.877Z,10.70
2022-10-11T22:14:56.482Z,8.45
2022-10-11T22:17:28.924Z,10.82
2022-10-11T22:19:58.577Z,15.73
2022-10-11T22:22:28.162Z,14.15
2022-10-11T22:24:57.713Z,13.45
2022-10-11T22:27:27.298Z,11.52
2022-10-11T22:29:56.849Z,13.57
2022-10-11T22:32:29.056Z,16.35
2022-10-11T22:34:58.645Z,11.07
2022-10-11T22:37:28.282Z,12.68
2022-10-11T22:39:57.867Z,12.02
2022-10-11T22:42:27.843Z,13.32
2022-10-11T22:44:57.520Z,8.30
2022-10-11T22:47:29.817Z,13.45
2022-10-11T22:49:59.433Z,9.93
2022-10-11T22:52:29.331Z,10.38
2022-10-11T22:54:59.394Z,8.88
2022-10-11T22:57:29.036Z,9.32
2022-10-11T22:59:58.636Z,14.30
2022-10-11T23:02:31.164Z,9.70
2022-10-11T23:05:00.725Z,12.18
2022-10-11T23:07:30.337Z,10.27
2022-10-11T23:10:00.025Z,12.80
2022-10-11T23:12:29.627Z,11.32
2022-10-11T23:14:59.209Z,11.32
2022-10-11T23:17:31.385Z,11.00
2022-10-11T23:20:01.203Z,11.15
2022-10-11T23:22:30.890Z,15.88
2022-10-11T23:25:00.902Z,14.43
2022-10-11T23:27:31.442Z,10.73
2022-10-11T23:30:01.474Z,12.55
2022-10-11T23:32:34.267Z,11.43
2022-10-11T23:35:03.851Z,10.85
2022-10-11T23:37:33.399Z,14.63
2022-10-11T23:40:02.950Z,11.35
2022-10-11T23:42:32.536Z,13.73
2022-10-11T23:45:02.155Z,20.52
2022-10-11T23:47:35.001Z,14.55
2022-10-11T23:50:04.846Z,14.25
2022-10-11T23:52:34.483Z,17.45
2022-10-11T23:55:04.223Z,18.70
2022-10-11T23:57:34.073Z,15.43
